Time;durP1;ratioP1;P1;durP2;ratioP2;P2;SDS_P1;SDS_P2;PMS_P1;PMS_P2;Temp;Humidity;BMP_temperature;BMP_pressure;BME280_temperature;BME280_humidity;BME280_pressure;Samples;Min_cycle;Max_cycle;Signal;HPM_P1;HPM_P2
2023/06/11 01:06:22;;;;;;;8.07;4.15;;;18.00;99.90;;;;;;4115053;24;20344;-96
2023/06/11 01:09:24;;;;;;;6.25;3.78;;;18.00;99.90;;;;;;5256723;24;20030;31
2023/06/11 01:16:27;;;;;;;5.35;3.40;;;17.60;99.90;;;;;;4773081;24;20079;-96
2023/06/11 01:37:55;;;;;;;6.67;4.10;;;17.50;99.90;;;;;;4871166;24;20067;-96
2023/06/11 01:40:32;;;;;;;6.55;4.10;;;17.50;99.90;;;;;;4787763;30;20043;-96
2023/06/11 02:32:40;;;;;;;6.57;4.65;;;17.00;99.90;;;;;;4788883;29;20051;-96
2023/06/11 02:35:09;;;;;;;7.45;5.18;;;17.00;99.90;;;;;;4782048;30;20061;-96
2023/06/11 02:37:35;;;;;;;6.93;5.03;;;16.90;99.90;;;;;;4769221;30;20111;-96
2023/06/11 02:40:01;;;;;;;5.20;4.70;;;16.90;99.90;;;;;;4797431;30;20073;-96
2023/06/11 02:42:44;;;;;;;5.55;4.53;;;16.90;99.90;;;;;;4753201;30;20050;-96
2023/06/11 02:45:16;;;;;;;4.82;4.25;;;16.70;99.90;;;;;;4776170;29;20066;-96
2023/06/11 02:50:30;;;;;;;6.18;4.50;;;16.70;99.90;;;;;;4834731;24;20070;-96
2023/06/11 02:52:56;;;;;;;6.47;5.20;;;16.70;99.90;;;;;;4761315;30;20055;-96
2023/06/11 02:58:01;;;;;;;6.55;4.78;;;16.60;99.90;;;;;;4816004;24;20060;-96
2023/06/11 03:00:45;;;;;;;5.60;4.70;;;16.60;99.90;;;;;;4780315;30;20495;-96
2023/06/11 03:03:17;;;;;;;6.18;4.97;;;16.20;99.90;;;;;;4794625;30;20047;-96
2023/06/11 03:05:49;;;;;;;5.30;4.45;;;16.90;99.90;;;;;;4762558;30;20051;-96
2023/06/11 03:08:15;;;;;;;6.35;4.35;;;16.50;99.90;;;;;;4751299;30;20046;-96
2023/06/11 03:10:42;;;;;;;5.97;5.32;;;16.60;99.90;;;;;;4802299;29;20047;-96
2023/06/11 03:13:09;;;;;;;6.90;4.70;;;16.60;99.90;;;;;;4786810;30;20043;-96
2023/06/11 03:15:36;;;;;;;;;;;16.50;99.90;;;;;;4778417;30;20112;-96
2023/06/11 03:18:06;;;;;;;5.82;4.72;;;16.50;99.90;;;;;;4781116;29;19921;-96
2023/06/11 03:20:32;;;;;;;9.23;5.40;;;17.00;99.90;;;;;;4782298;30;20054;-96
2023/06/11 03:22:58;;;;;;;6.68;5.20;;;16.50;99.90;;;;;;4775645;30;20055;-96
2023/06/11 03:25:24;;;;;;;6.85;5.25;;;16.50;99.90;;;;;;4779289;30;20090;-96
2023/06/11 03:27:55;;;;;;;6.05;5.45;;;16.50;99.90;;;;;;4793031;29;20055;-96
2023/06/11 03:30:24;;;;;;;6.25;5.20;;;16.60;99.90;;;;;;4783405;30;20369;-96
2023/06/11 03:32:50;;;;;;;7.10;4.97;;;16.50;99.90;;;;;;4802641;29;20107;-96
2023/06/11 03:35:16;;;;;;;5.75;5.05;;;16.50;99.90;;;;;;4796401;29;20317;-96
2023/06/11 03:37:58;;;;;;;6.10;5.05;;;16.50;99.90;;;;;;4788412;30;20154;-96
2023/06/11 03:40:25;;;;;;;10.25;5.70;;;16.60;99.90;;;;;;4782431;30;20047;-96
2023/06/11 03:42:51;;;;;;;6.63;5.47;;;16.50;99.90;;;;;;4794519;29;20049;-96
2023/06/11 03:45:17;;;;;;;8.13;5.35;;;16.50;99.90;;;;;;4785011;29;20039;-96
2023/06/11 03:47:44;;;;;;;6.43;4.75;;;16.50;99.90;;;;;;4793586;29;20019;-96
2023/06/11 03:50:10;;;;;;;;;;;16.50;99.90;;;;;;4798679;29;20057;-96
2023/06/11 03:52:37;;;;;;;7.22;4.90;;;16.30;99.90;;;;;;4794582;29;19925;-96
2023/06/11 03:55:06;;;;;;;9.82;5.47;;;16.50;99.90;;;;;;4782850;30;20106;-96
2023/06/11 03:57:36;;;;;;;5.63;5.00;;;17.20;99.90;;;;;;4803687;29;20149;-96
2023/06/11 04:00:04;;;;;;;5.93;5.00;;;16.60;99.90;;;;;;4784500;29;20038;-96
2023/06/11 04:02:41;;;;;;;7.03;5.05;;;16.50;99.90;;;;;;4807438;29;20046;-96
2023/06/11 04:05:07;;;;;;;6.15;4.82;;;16.60;99.90;;;;;;4794383;29;20057;-96
2023/06/11 04:07:35;;;;;;;9.48;5.20;;;16.90;99.90;;;;;;4803530;29;20046;-96
2023/06/11 04:10:07;;;;;;;7.35;5.30;;;16.60;99.90;;;;;;4808443;29;20050;-96
2023/06/11 04:12:34;;;;;;;7.28;5.20;;;16.40;99.90;;;;;;4817807;29;20042;-96
2023/06/11 04:15:12;;;;;;;6.85;5.28;;;16.60;99.90;;;;;;4774117;29;20047;-96
2023/06/11 04:17:59;;;;;;;6.70;5.10;;;16.40;99.90;;;;;;4822223;29;20043;-96
2023/06/11 04:20:31;;;;;;;9.07;5.00;;;16.80;99.90;;;;;;4817862;29;20050;-96
2023/06/11 04:23:11;;;;;;;;;;;;;;;;;;;;;
2023/06/11 04:25:39;;;;;;;7.00;5.72;;;16.80;99.90;;;;;;4811771;29;20050;-96
2023/06/11 04:28:07;;;;;;;7.20;5.35;;;16.90;99.90;;;;;;4802011;30;20035;-96
2023/06/11 04:30:33;;;;;;;7.63;5.20;;;16.90;99.90;;;;;;4796184;29;20038;-96
2023/06/11 04:33:03;;;;;;;6.72;5.70;;;;;;;;;;4807830;29;20043;-96
2023/06/11 04:35:47;;;;;;;6.13;5.53;;;17.00;99.90;;;;;;4814435;29;20089;-96
2023/06/11 04:38:24;;;;;;;6.03;5.40;;;17.10;99.90;;;;;;4822421;29;20058;-96
2023/06/11 04:41:17;;;;;;;6.65;5.53;;;17.00;99.90;;;;;;4806829;29;20053;-96
2023/06/11 04:43:52;;;;;;;6.60;5.43;;;17.10;99.90;;;;;;4806862;29;20122;-96
2023/06/11 04:46:17;;;;;;;6.65;5.45;;;17.20;99.90;;;;;;4817024;24;20046;-40
2023/06/11 04:48:43;;;;;;;6.30;5.05;;;17.20;99.90;;;;;;4758424;30;20563;-41
2023/06/11 04:51:11;;;;;;;5.97;5.32;;;17.30;99.90;;;;;;4774342;30;20100;-41
2023/06/11 04:53:41;;;;;;;7.00;5.13;;;17.40;99.90;;;;;;4770196;30;20512;-40
2023/06/11 04:56:08;;;;;;;5.43;4.90;;;17.40;99.90;;;;;;4753615;30;20543;-41
2023/06/11 04:58:34;;;;;;;;;;;17.50;99.90;;;;;;4772353;30;20043;-40
2023/06/11 05:00:59;;;;;;;7.18;5.00;;;17.60;99.90;;;;;;4765520;30;19928;-41
2023/06/11 05:03:36;;;;;;;7.40;4.85;;;17.70;99.90;;;;;;4772435;30;20043;-41
2023/06/11 05:06:02;;;;;;;7.72;4.82;;;17.70;99.90;;;;;;4739840;30;20063;-41
2023/06/11 05:08:28;;;;;;;5.30;4.73;;;17.80;99.90;;;;;;4773233;30;20040;-40
2023/06/11 05:10:57;;;;;;;8.32;5.18;;;17.90;99.90;;;;;;4753508;30;20462;-40
2023/06/11 05:13:26;;;;;;;6.18;5.43;;;18.00;99.90;;;;;;4769275;30;20051;-41
2023/06/11 05:15:56;;;;;;;5.72;4.75;;;18.00;99.90;;;;;;4769248;30;20039;-41
2023/06/11 05:18:25;;;;;;;5.03;4.53;;;18.10;99.90;;;;;;4772029;30;20090;-41
2023/06/11 05:20:51;;;;;;;10.10;5.50;;;18.20;99.90;;;;;;4766709;30;20130;-41
2023/06/11 05:23:18;;;;;;;4.90;4.50;;;18.20;99.90;;;;;;4766575;30;20044;-40
2023/06/11 05:25:47;;;;;;;6.63;5.40;;;18.30;99.90;;;;;;4775805;30;20044;-40
2023/06/11 05:28:16;;;;;;;5.28;4.20;;;18.40;99.90;;;;;;4760092;30;20115;-41
2023/06/11 05:30:45;;;;;;;5.10;4.30;;;18.50;99.90;;;;;;4765813;30;20060;-40
2023/06/11 05:33:13;;;;;;;5.35;4.85;;;18.60;99.90;;;;;;4754311;30;20040;-41
2023/06/11 05:35:39;;;;;;;6.75;5.05;;;18.70;99.90;;;;;;4773068;30;20422;-41
2023/06/11 05:38:06;;;;;;;5.32;4.80;;;18.80;99.90;;;;;;4765132;30;20118;-40
2023/06/11 05:40:37;;;;;;;5.53;4.88;;;18.80;99.90;;;;;;4766398;30;20052;-40
2023/06/11 05:43:04;;;;;;;7.05;5.00;;;18.80;99.90;;;;;;4767641;30;20051;-40
2023/06/11 05:45:35;;;;;;;5.75;4.47;;;18.90;99.90;;;;;;4765060;30;20039;-40
2023/06/11 05:48:05;;;;;;;5.70;4.38;;;19.00;99.90;;;;;;4766636;30;20054;-41
2023/06/11 05:50:42;;;;;;;6.78;4.30;;;19.20;99.90;;;;;;4765453;30;20441;-40
2023/06/11 05:53:09;;;;;;;5.95;4.57;;;19.80;99.90;;;;;;4765564;30;20054;-40
2023/06/11 05:55:37;;;;;;;5.43;4.50;;;20.60;99.90;;;;;;4769160;30;20056;-40
2023/06/11 05:58:05;;;;;;;7.50;4.38;;;21.50;99.90;;;;;;4751344;30;20052;-41
2023/06/11 06:00:31;;;;;;;6.55;4.45;;;22.10;99.90;;;;;;4766168;30;20516;-41
2023/06/11 06:02:57;;;;;;;6.47;4.30;;;22.30;99.90;;;;;;4767348;30;20086;-41
2023/06/11 06:05:24;;;;;;;4.30;3.90;;;22.10;99.90;;;;;;4766395;30;20052;-41
2023/06/11 06:07:50;;;;;;;4.95;4.00;;;21.70;99.90;;;;;;4747136;30;20040;-40
2023/06/11 06:10:17;;;;;;;9.80;4.50;;;21.50;99.90;;;;;;4762888;30;20050;-41
2023/06/11 06:12:47;;;;;;;5.30;4.50;;;21.60;99.90;;;;;;4766168;30;20105;-41
2023/06/11 06:15:15;;;;;;;4.97;4.18;;;21.70;99.90;;;;;;4766503;30;20059;-41
2023/06/11 06:17:41;;;;;;;4.32;3.92;;;22.10;99.90;;;;;;4773966;30;20055;-41
2023/06/11 06:20:08;;;;;;;4.68;3.95;;;22.50;99.90;;;;;;4766142;30;20430;-41
2023/06/11 06:22:34;;;;;;;6.45;4.15;;;22.60;99.90;;;;;;4750913;30;20462;-40
2023/06/11 06:25:00;;;;;;;7.25;4.15;;;22.60;99.90;;;;;;4771851;30;20119;-41
2023/06/11 06:27:26;;;;;;;4.82;3.80;;;22.50;99.90;;;;;;4750139;30;20043;-41
2023/06/11 06:29:56;;;;;;;4.50;4.10;;;22.30;99.90;;;;;;4762056;30;20565;-41
2023/06/11 06:32:22;;;;;;;5.20;4.10;;;22.00;99.90;;;;;;4771427;30;20487;-41
2023/06/11 06:34:49;;;;;;;5.05;4.07;;;22.00;99.90;;;;;;4766907;30;20050;-41
2023/06/11 06:37:18;;;;;;;6.80;4.18;;;21.90;99.90;;;;;;4764522;30;20158;-41
2023/06/11 06:39:44;;;;;;;4.03;3.63;;;21.70;99.90;;;;;;4767641;29;20126;-41
2023/06/11 06:42:10;;;;;;;5.55;4.43;;;21.70;99.90;;;;;;4765487;30;20081;-40
2023/06/11 06:44:36;;;;;;;5.25;3.90;;;21.80;99.90;;;;;;4762894;30;20036;-41
2023/06/11 06:47:04;;;;;;;4.75;3.90;;;21.90;99.90;;;;;;4754088;30;20080;-40
2023/06/11 06:49:31;;;;;;;5.53;4.03;;;22.00;99.90;;;;;;4749020;30;20044;-40
2023/06/11 06:51:56;;;;;;;4.07;3.67;;;22.00;99.90;;;;;;4749240;30;20075;-40
2023/06/11 06:54:22;;;;;;;5.03;4.07;;;22.20;99.90;;;;;;4747571;30;20052;-41
2023/06/11 06:56:48;;;;;;;5.45;3.90;;;22.50;99.90;;;;;;4746879;30;20051;-41
2023/06/11 06:59:14;;;;;;;4.38;3.97;;;22.90;99.90;;;;;;4748314;30;20047;-41
2023/06/11 07:01:42;;;;;;;4.30;3.70;;;23.30;99.90;;;;;;4734260;30;20056;-40
2023/06/11 07:04:12;;;;;;;5.07;4.00;;;23.80;99.90;;;;;;4750976;30;20050;-40
2023/06/11 07:06:43;;;;;;;6.20;3.70;;;24.60;99.90;;;;;;4757200;30;20455;-41
2023/06/11 07:09:09;;;;;;;4.15;3.75;;;25.20;99.90;;;;;;4758396;30;20476;-41
2023/06/11 07:11:35;;;;;;;5.00;3.23;;;25.50;99.90;;;;;;4750165;30;20044;-41
2023/06/11 07:14:01;;;;;;;6.32;3.47;;;25.60;99.90;;;;;;4755397;30;20087;-41
2023/06/11 07:16:27;;;;;;;5.50;3.70;;;25.90;99.90;;;;;;4750228;30;20157;-40
2023/06/11 07:18:53;;;;;;;3.53;3.13;;;26.30;99.90;;;;;;4748220;30;20103;-42
2023/06/11 07:21:19;;;;;;;4.53;3.80;;;26.70;99.90;;;;;;4742351;30;20058;-41
2023/06/11 07:23:48;;;;;;;5.18;3.92;;;27.10;99.90;;;;;;4752090;30;20166;-41
2023/06/11 07:26:15;;;;;;;5.55;3.25;;;27.50;99.90;;;;;;4750282;30;20036;-41
2023/06/11 07:28:41;;;;;;;3.60;3.08;;;27.60;99.90;;;;;;4754646;30;20051;-41
2023/06/11 07:31:08;;;;;;;4.40;3.60;;;27.60;99.90;;;;;;4736852;30;20131;-40
2023/06/11 07:33:33;;;;;;;;;;;27.60;97.50;;;;;;4750791;30;20109;-41
2023/06/11 07:35:59;;;;;;;4.82;3.47;;;27.50;93.80;;;;;;4753170;30;19926;-40
2023/06/11 07:38:25;;;;;;;3.83;3.27;;;27.70;96.30;;;;;;4749582;30;20051;-40
2023/06/11 07:40:57;;;;;;;5.18;3.78;;;27.80;93.20;;;;;;4753678;30;20040;-40
2023/06/11 07:43:23;;;;;;;11.05;4.25;;;27.60;90.00;;;;;;4732373;30;20044;-40
2023/06/11 07:45:49;;;;;;;6.93;3.70;;;27.70;93.40;;;;;;4742543;30;20057;-40
2023/06/11 07:48:15;;;;;;;7.87;3.87;;;28.30;92.90;;;;;;4738583;30;20056;-41
2023/06/11 07:50:41;;;;;;;6.50;3.78;;;28.40;90.50;;;;;;4745835;30;20063;-40
2023/06/11 07:53:07;;;;;;;4.07;3.67;;;28.50;89.70;;;;;;4755389;30;20074;-40
2023/06/11 07:55:32;;;;;;;4.53;3.20;;;28.50;86.10;;;;;;4751701;30;20041;-40
2023/06/11 07:57:58;;;;;;;5.20;3.60;;;28.20;85.50;;;;;;4735712;30;20162;-40
2023/06/11 08:00:24;;;;;;;4.37;3.57;;;28.30;85.70;;;;;;4749262;30;20040;-40
2023/06/11 08:02:50;;;;;;;5.70;3.30;;;28.20;85.60;;;;;;4751956;30;20396;-40
2023/06/11 08:05:17;;;;;;;3.67;3.03;;;28.20;85.90;;;;;;4752389;30;21111;-40
2023/06/11 08:07:47;;;;;;;6.18;3.30;;;28.20;86.00;;;;;;4736277;30;20880;-40
2023/06/11 08:10:13;;;;;;;6.45;3.45;;;28.00;85.00;;;;;;4734592;30;20118;-40
2023/06/11 08:12:40;;;;;;;5.32;3.35;;;28.00;84.70;;;;;;4749578;30;20501;-40
2023/06/11 08:15:06;;;;;;;3.90;3.50;;;28.00;86.10;;;;;;4750837;30;20059;-40
2023/06/11 08:17:34;;;;;;;4.35;3.13;;;27.90;86.10;;;;;;4751019;30;20430;-40
2023/06/11 08:20:00;;;;;;;4.53;3.05;;;27.80;85.00;;;;;;4748140;30;20070;-40
2023/06/11 08:22:26;;;;;;;5.07;3.45;;;27.50;85.50;;;;;;4752056;30;20048;-39
2023/06/11 08:24:55;;;;;;;5.50;3.53;;;27.40;87.50;;;;;;4755430;30;20067;-40
2023/06/11 08:27:21;;;;;;;5.60;3.35;;;27.30;88.10;;;;;;4746629;30;20048;-40
2023/06/11 08:29:47;;;;;;;4.50;3.80;;;27.10;88.00;;;;;;4753584;30;20770;-40
2023/06/11 08:32:13;;;;;;;4.97;3.33;;;27.00;89.20;;;;;;4733942;30;20063;-40
2023/06/11 08:34:39;;;;;;;3.80;2.80;;;27.00;90.40;;;;;;4746687;30;20513;-39
2023/06/11 08:37:05;;;;;;;4.23;3.50;;;26.90;92.30;;;;;;4755364;30;20048;-40
2023/06/11 08:39:31;;;;;;;4.65;3.45;;;26.90;93.30;;;;;;4735524;30;20040;-39
2023/06/11 08:41:57;;;;;;;5.60;3.53;;;27.00;92.80;;;;;;4751043;30;20046;-40
2023/06/11 08:44:23;;;;;;;5.23;3.63;;;27.20;92.60;;;;;;4752704;30;20110;-40
2023/06/11 08:46:49;;;;;;;3.30;3.00;;;27.20;91.50;;;;;;4746773;30;20049;-40
2023/06/11 08:49:22;;;;;;;4.38;3.58;;;27.10;90.40;;;;;;4748723;30;20056;-40
2023/06/11 08:51:48;;;;;;;4.65;3.42;;;27.20;91.30;;;;;;4741304;30;20063;-40
2023/06/11 08:54:14;;;;;;;;;;;27.50;92.10;;;;;;4755114;30;20063;-40
2023/06/11 08:56:43;;;;;;;4.85;3.03;;;27.60;90.30;;;;;;4751969;30;20021;-40
2023/06/11 08:59:09;;;;;;;5.18;3.60;;;27.60;90.40;;;;;;4707040;30;20088;-39
2023/06/11 09:01:35;;;;;;;4.43;3.33;;;27.70;90.20;;;;;;4746765;30;20365;-40
2023/06/11 09:04:07;;;;;;;4.03;3.27;;;27.90;89.60;;;;;;4745804;30;20566;-39
2023/06/11 09:06:34;;;;;;;4.30;3.40;;;27.80;89.60;;;;;;4748901;30;21009;-40
2023/06/11 09:09:00;;;;;;;8.40;2.97;;;28.00;90.50;;;;;;4753788;30;20054;-39
2023/06/11 09:11:37;;;;;;;5.07;3.20;;;28.20;90.90;;;;;;4751985;30;20085;-39
2023/06/11 09:14:03;;;;;;;4.07;3.38;;;28.50;90.40;;;;;;4747039;30;20855;-39
2023/06/11 09:16:37;;;;;;;4.50;3.67;;;28.50;87.50;;;;;;4746454;30;20052;-39
2023/06/11 09:19:03;;;;;;;3.70;3.17;;;28.30;87.00;;;;;;4744851;30;20462;-39
2023/06/11 09:21:30;;;;;;;4.68;3.25;;;28.50;90.00;;;;;;4753594;30;20083;-39
2023/06/11 09:24:08;;;;;;;3.95;3.03;;;28.60;88.30;;;;;;4749359;30;20068;-39
2023/06/11 09:26:34;;;;;;;3.63;3.17;;;28.70;88.70;;;;;;4750307;30;20051;-40
2023/06/11 09:29:00;;;;;;;4.53;3.10;;;28.80;87.80;;;;;;4750660;30;20041;-39
2023/06/11 09:31:26;;;;;;;6.30;2.92;;;28.70;87.60;;;;;;4749259;30;20040;-39
2023/06/11 09:33:52;;;;;;;3.37;2.80;;;28.80;85.40;;;;;;4749286;30;20052;-39
2023/06/11 09:36:18;;;;;;;3.22;2.90;;;28.80;84.30;;;;;;4754577;30;20484;-39
2023/06/11 09:38:50;;;;;;;4.80;3.30;;;28.60;84.90;;;;;;4735950;30;20114;-39
2023/06/11 09:41:19;;;;;;;3.90;3.03;;;28.80;86.80;;;;;;4750373;30;20048;-39
2023/06/11 09:43:52;;;;;;;5.72;3.55;;;29.00;84.80;;;;;;4751893;30;20056;-39
2023/06/11 09:46:30;;;;;;;3.33;2.60;;;29.20;82.80;;;;;;4751248;30;20044;-39
2023/06/11 09:49:14;;;;;;;3.95;3.15;;;29.00;82.40;;;;;;4746335;30;20052;-39
2023/06/11 09:51:40;;;;;;;6.03;3.33;;;29.10;82.90;;;;;;4772369;24;20064;-91
2023/06/11 09:54:09;;;;;;;3.38;3.08;;;28.90;81.40;;;;;;4750185;30;20055;-91
2023/06/11 09:56:36;;;;;;;4.63;3.00;;;28.80;80.20;;;;;;4735965;30;20065;-92
2023/06/11 09:59:03;;;;;;;3.35;2.92;;;28.80;81.00;;;;;;4768990;30;20055;-92
2023/06/11 10:01:30;;;;;;;4.85;2.90;;;28.80;80.60;;;;;;4774713;29;20076;-92
2023/06/11 10:04:00;;;;;;;5.40;3.05;;;28.80;81.00;;;;;;4745550;30;20078;-91
2023/06/11 10:06:30;;;;;;;4.63;3.40;;;28.90;80.10;;;;;;4786726;29;20043;-92
2023/06/11 10:09:00;;;;;;;4.38;3.28;;;28.90;80.90;;;;;;4769804;30;20484;-92
2023/06/11 10:11:29;;;;;;;5.88;2.90;;;29.00;81.60;;;;;;4785444;29;20799;-92
2023/06/11 10:14:00;;;;;;;4.90;2.80;;;29.30;82.30;;;;;;4756005;30;20070;-94
2023/06/11 10:16:27;;;;;;;3.20;2.90;;;29.30;81.60;;;;;;4755998;30;20147;-92
2023/06/11 10:19:06;;;;;;;3.63;2.70;;;29.40;81.10;;;;;;4742994;30;20566;-94
2023/06/11 10:21:54;;;;;;;4.15;2.63;;;29.30;79.30;;;;;;4771149;29;20499;-92
2023/06/11 10:24:24;;;;;;;3.10;2.80;;;29.40;80.00;;;;;;4757450;30;20039;-92
2023/06/11 10:27:33;;;;;;;4.07;3.08;;;29.30;79.00;;;;;;4729956;29;20053;-91
2023/06/11 10:30:02;;;;;;;5.00;3.35;;;29.20;77.90;;;;;;4760435;29;20066;-92
2023/06/11 10:32:28;;;;;;;7.13;2.88;;;29.30;80.00;;;;;;4768355;30;20107;-91
2023/06/11 10:34:54;;;;;;;4.00;3.10;;;29.30;77.70;;;;;;4735390;30;20079;-92
2023/06/11 10:37:40;;;;;;;4.97;2.92;;;29.20;76.90;;;;;;4759651;30;20099;-92
2023/06/11 10:40:08;;;;;;;4.47;3.03;;;29.00;75.80;;;;;;4757169;30;20050;-94
2023/06/11 10:42:39;;;;;;;4.18;3.10;;;29.10;76.30;;;;;;4742513;30;20059;-93
2023/06/11 10:45:09;;;;;;;3.90;3.17;;;29.10;77.60;;;;;;4789329;29;20495;-92
2023/06/11 10:47:42;;;;;;;7.93;3.13;;;29.20;77.80;;;;;;4771290;30;20050;-92
2023/06/11 10:50:10;;;;;;;4.47;2.80;;;29.20;75.90;;;;;;4771389;30;20043;-94
2023/06/11 10:52:49;;;;;;;5.32;2.72;;;29.20;76.60;;;;;;4766099;30;20055;-92
2023/06/11 10:55:16;;;;;;;4.10;2.85;;;29.30;74.90;;;;;;4781310;30;20051;-92
2023/06/11 10:57:42;;;;;;;5.63;2.70;;;29.40;76.70;;;;;;4772861;30;20120;-93
2023/06/11 11:00:09;;;;;;;4.30;2.90;;;29.50;74.60;;;;;;4740831;30;20054;-92
2023/06/11 11:02:35;;;;;;;8.32;3.50;;;29.50;72.70;;;;;;4754191;30;20082;-92
2023/06/11 11:05:01;;;;;;;5.05;2.90;;;29.50;73.10;;;;;;4744603;30;20051;-91
2023/06/11 11:07:34;;;;;;;2.72;2.53;;;29.60;73.00;;;;;;4777704;29;20154;-92
2023/06/11 11:10:06;;;;;;;4.03;2.95;;;29.50;71.10;;;;;;4793199;29;20096;-93
2023/06/11 11:12:44;;;;;;;5.97;2.80;;;29.60;71.00;;;;;;4775646;29;20049;-92
2023/06/11 11:15:11;;;;;;;4.35;2.58;;;29.70;71.40;;;;;;4781576;29;20068;-91
2023/06/11 11:17:40;;;;;;;3.28;2.47;;;29.70;70.80;;;;;;4767212;29;20035;-93
2023/06/11 11:20:10;;;;;;;2.83;2.20;;;29.70;70.00;;;;;;4777753;29;20047;-88
2023/06/11 11:22:37;;;;;;;2.53;2.30;;;29.70;66.30;;;;;;4771173;30;20135;-92
2023/06/11 11:25:04;;;;;;;3.20;2.58;;;29.70;67.80;;;;;;4747684;30;20040;-92
2023/06/11 11:27:30;;;;;;;4.35;2.42;;;29.80;67.20;;;;;;4760130;30;20047;-93
2023/06/11 11:29:59;;;;;;;5.13;2.88;;;29.90;67.40;;;;;;4760592;30;20091;-94
2023/06/11 11:32:48;;;;;;;2.30;2.10;;;29.90;67.30;;;;;;4760028;29;20103;-93
2023/06/11 11:35:14;;;;;;;2.58;2.20;;;30.10;68.10;;;;;;4760050;30;20043;-93
2023/06/11 11:37:40;;;;;;;10.50;2.50;;;30.20;64.50;;;;;;4754478;30;20108;-92
2023/06/11 11:40:07;;;;;;;3.75;2.28;;;30.10;64.20;;;;;;4757776;30;20512;-93
2023/06/11 11:42:47;;;;;;;4.00;2.22;;;30.10;63.90;;;;;;4770743;30;20054;-93
2023/06/11 11:45:16;;;;;;;3.03;2.17;;;30.20;65.40;;;;;;4745969;30;20052;-94
2023/06/11 11:47:44;;;;;;;5.13;2.40;;;30.40;64.20;;;;;;4750845;30;20416;-91
2023/06/11 11:50:27;;;;;;;2.78;2.10;;;30.50;63.30;;;;;;4758459;30;20047;-92
2023/06/11 11:53:03;;;;;;;4.22;2.38;;;30.40;59.80;;;;;;4732000;30;20048;-93
2023/06/11 11:55:46;;;;;;;4.10;2.30;;;30.40;61.80;;;;;;4755817;30;20065;-93
2023/06/11 11:58:16;;;;;;;2.78;2.22;;;30.40;62.30;;;;;;4756766;30;20134;-96
2023/06/11 12:00:46;;;;;;;4.80;2.38;;;30.40;61.30;;;;;;4755614;30;20044;-92
2023/06/11 12:03:17;;;;;;;2.45;2.25;;;30.40;62.40;;;;;;4758595;30;20040;-93
2023/06/11 12:05:54;;;;;;;4.05;2.60;;;30.30;60.90;;;;;;4750256;30;20044;-93
2023/06/11 12:08:19;;;;;;;6.95;2.60;;;30.30;59.70;;;;;;4768032;30;20137;-93
2023/06/11 12:10:46;;;;;;;2.97;2.67;;;30.10;60.90;;;;;;4739691;30;20501;-95
2023/06/11 12:13:14;;;;;;;4.47;2.17;;;29.90;61.20;;;;;;4730821;30;20628;-91
2023/06/11 12:15:40;;;;;;;3.40;2.47;;;30.00;61.40;;;;;;4744121;30;20075;-91
2023/06/11 12:18:06;;;;;;;3.58;2.47;;;30.00;59.10;;;;;;4742046;30;21008;-92
2023/06/11 12:20:32;;;;;;;8.20;2.53;;;29.90;59.70;;;;;;4743962;30;20071;-91
2023/06/11 12:22:57;;;;;;;4.90;2.43;;;29.90;60.80;;;;;;4741130;30;20048;-96
2023/06/11 12:25:25;;;;;;;3.28;2.42;;;29.80;61.20;;;;;;4753868;30;20496;-91
2023/06/11 12:27:51;;;;;;;3.22;2.40;;;29.80;61.60;;;;;;4741184;30;20480;-92
2023/06/11 12:30:18;;;;;;;3.50;2.25;;;29.80;60.90;;;;;;4727850;30;20048;-92
2023/06/11 12:32:44;;;;;;;3.17;2.25;;;29.60;60.10;;;;;;4755046;30;20044;-92
2023/06/11 12:35:10;;;;;;;4.35;2.33;;;29.60;61.10;;;;;;4748172;30;20464;-92
2023/06/11 12:37:36;;;;;;;4.78;2.47;;;29.70;59.20;;;;;;4745890;30;20052;-91
2023/06/11 12:40:05;;;;;;;3.58;2.67;;;29.70;59.70;;;;;;4729135;30;20134;-92
2023/06/11 12:42:32;;;;;;;3.45;2.45;;;29.70;59.30;;;;;;4742194;29;20048;-91
2023/06/11 12:44:59;;;;;;;3.80;2.67;;;29.60;59.10;;;;;;4755567;30;20122;-93
2023/06/11 12:47:25;;;;;;;3.17;2.38;;;29.30;58.70;;;;;;4740626;30;20039;-91
2023/06/11 12:49:52;;;;;;;2.70;2.25;;;29.10;58.60;;;;;;4740079;30;20040;-90
2023/06/11 12:52:18;;;;;;;5.18;2.25;;;29.00;58.30;;;;;;4759899;29;20057;-91
2023/06/11 12:54:43;;;;;;;3.72;2.40;;;28.90;59.80;;;;;;4752867;29;20043;-91
2023/06/11 12:57:11;;;;;;;2.57;2.17;;;29.00;60.00;;;;;;4757759;30;20126;-91
2023/06/11 12:59:37;;;;;;;2.92;2.50;;;29.20;60.80;;;;;;4741621;30;20512;-92
2023/06/11 13:02:08;;;;;;;2.88;2.20;;;29.30;61.20;;;;;;4797460;29;20051;-92
2023/06/11 13:04:33;;;;;;;4.72;2.65;;;29.40;60.30;;;;;;4752106;29;20083;-91
2023/06/11 13:06:59;;;;;;;3.03;2.47;;;29.60;59.70;;;;;;4754670;29;20142;-91
2023/06/11 13:09:25;;;;;;;2.80;2.30;;;29.60;59.00;;;;;;4750918;30;20183;-92
2023/06/11 13:11:51;;;;;;;2.90;2.60;;;29.70;59.00;;;;;;4727134;30;20473;-91
2023/06/11 13:14:18;;;;;;;3.42;2.63;;;29.60;59.60;;;;;;4759594;30;20552;-90
2023/06/11 13:16:48;;;;;;;2.88;2.50;;;29.60;60.10;;;;;;4763667;30;20121;-92
2023/06/11 13:19:14;;;;;;;3.25;2.80;;;29.50;61.10;;;;;;4758662;29;20042;-91
2023/06/11 13:21:40;;;;;;;5.00;2.60;;;29.40;60.40;;;;;;4747610;30;20579;-92
2023/06/11 13:24:06;;;;;;;3.33;2.97;;;29.40;61.00;;;;;;4740463;30;20053;-91
2023/06/11 13:26:31;;;;;;;5.20;2.67;;;29.50;60.90;;;;;;4759739;30;20073;-93
2023/06/11 13:28:57;;;;;;;3.15;2.40;;;29.50;60.10;;;;;;4751547;30;20044;-92
2023/06/11 13:31:24;;;;;;;2.83;2.53;;;29.50;60.30;;;;;;4754169;30;20050;-92
2023/06/11 13:33:49;;;;;;;;;;;29.50;60.20;;;;;;4738915;30;20054;-92
2023/06/11 13:36:15;;;;;;;4.60;2.63;;;29.40;61.10;;;;;;4751765;30;19925;-91
2023/06/11 13:38:41;;;;;;;5.35;2.45;;;29.40;61.00;;;;;;4723403;29;20770;-91
2023/06/11 13:41:07;;;;;;;4.40;2.90;;;29.40;61.70;;;;;;4765539;29;20046;-92
2023/06/11 13:43:33;;;;;;;3.08;2.55;;;29.40;62.50;;;;;;4751161;30;20058;-92
2023/06/11 13:45:59;;;;;;;4.37;2.97;;;29.30;62.40;;;;;;4744567;30;20129;-91
2023/06/11 13:48:25;;;;;;;3.13;2.58;;;29.30;60.00;;;;;;4748852;29;20471;-92
2023/06/11 13:50:51;;;;;;;3.85;2.65;;;29.20;59.40;;;;;;4762329;30;20047;-92
2023/06/11 13:53:20;;;;;;;3.88;2.65;;;29.00;58.10;;;;;;4749184;30;20047;-89
2023/06/11 13:55:46;;;;;;;2.75;2.13;;;28.90;58.90;;;;;;4762661;29;20054;-90
2023/06/11 13:58:14;;;;;;;3.40;2.60;;;28.70;59.60;;;;;;4755012;30;20047;-92
2023/06/11 14:00:39;;;;;;;3.35;2.65;;;28.70;60.40;;;;;;4763584;29;20142;-92
2023/06/11 14:03:05;;;;;;;3.73;2.97;;;28.80;62.00;;;;;;4764415;30;20040;-92
2023/06/11 14:05:31;;;;;;;5.40;2.80;;;28.70;61.90;;;;;;4757586;30;20507;-91
2023/06/11 14:07:58;;;;;;;7.63;3.00;;;28.60;62.30;;;;;;4758750;29;21032;-91
2023/06/11 14:10:24;;;;;;;3.67;2.63;;;28.50;62.50;;;;;;4780011;30;20039;-93
2023/06/11 14:12:50;;;;;;;3.53;2.58;;;28.50;63.30;;;;;;4773803;30;20104;-92
2023/06/11 14:15:18;;;;;;;3.07;2.70;;;28.40;63.30;;;;;;4762384;30;20043;-91
2023/06/11 14:17:46;;;;;;;4.45;2.60;;;28.50;64.90;;;;;;4732567;30;20054;-93
2023/06/11 14:20:13;;;;;;;6.47;2.83;;;28.60;64.70;;;;;;4757933;30;20052;-91
2023/06/11 14:22:39;;;;;;;3.55;2.92;;;28.70;63.10;;;;;;4770640;30;20048;-92
2023/06/11 14:25:05;;;;;;;;;;;28.70;62.10;;;;;;4780106;29;20059;-92
2023/06/11 14:27:32;;;;;;;3.17;2.50;;;28.70;62.20;;;;;;4788442;29;19923;-90
2023/06/11 14:29:58;;;;;;;5.03;2.72;;;28.80;62.50;;;;;;4794716;29;20041;-90
2023/06/11 14:32:28;;;;;;;3.47;2.53;;;28.80;62.00;;;;;;4793503;29;20106;-91
2023/06/11 14:34:54;;;;;;;4.53;2.78;;;28.70;62.50;;;;;;4791968;29;20043;-92
2023/06/11 14:37:23;;;;;;;4.32;2.90;;;28.70;61.60;;;;;;4758302;29;20054;-89
2023/06/11 14:39:58;;;;;;;4.97;2.88;;;28.70;61.20;;;;;;4757701;30;20052;-93
2023/06/11 14:42:26;;;;;;;4.43;2.70;;;28.70;62.10;;;;;;4742121;29;20040;-92
2023/06/11 14:44:55;;;;;;;3.47;2.70;;;28.60;60.90;;;;;;4729079;30;20043;-94
2023/06/11 14:47:21;;;;;;;4.63;3.08;;;28.50;61.70;;;;;;4754241;30;20054;-91
2023/06/11 14:49:47;;;;;;;3.73;2.27;;;28.40;63.20;;;;;;4747120;29;20122;-91
2023/06/11 14:52:14;;;;;;;5.47;2.83;;;28.20;63.40;;;;;;4771286;29;20976;-94
2023/06/11 14:54:39;;;;;;;6.05;2.92;;;28.10;64.20;;;;;;4741197;30;20074;-91
2023/06/11 14:57:15;;;;;;;4.27;2.97;;;28.00;64.10;;;;;;4757188;29;20143;-92
2023/06/11 14:59:42;;;;;;;6.45;3.03;;;28.00;63.90;;;;;;4769883;30;20055;-89
2023/06/11 15:02:09;;;;;;;6.78;3.15;;;28.00;64.40;;;;;;4768910;30;20052;-92
2023/06/11 15:04:39;;;;;;;5.80;2.83;;;28.10;63.90;;;;;;4768271;30;20131;-94
2023/06/11 15:07:11;;;;;;;4.35;2.75;;;28.20;63.30;;;;;;4770167;30;20040;-91
2023/06/11 15:09:44;;;;;;;3.10;2.72;;;28.20;63.30;;;;;;4771135;30;20079;-93
2023/06/11 15:12:53;;;;;;;;;;;;;;;;;;;;;
2023/06/11 15:16:00;;;;;;;5.53;2.92;;;28.30;63.30;;;;;;4747207;30;20055;-91
2023/06/11 15:18:40;;;;;;;4.90;2.90;;;28.10;62.60;;;;;;4747816;30;20130;-92
2023/06/11 15:21:12;;;;;;;4.82;2.72;;;28.30;61.70;;;;;;4769797;30;20085;-92
2023/06/11 15:23:38;;;;;;;4.00;2.70;;;28.20;62.00;;;;;;4767599;29;20133;-91